sensor_id;sensor_type;location;lat;lon;timestamp;temperature;humidity
17851;DHT22;9051;51.548;14.348;2022-08-03T00:00:54;19.60;99.90
17851;DHT22;9051;51.548;14.348;2022-08-03T00:03:28;19.70;99.90
17851;DHT22;9051;51.548;14.348;2022-08-03T00:06:00;19.70;99.90
17851;DHT22;9051;51.548;14.348;2022-08-03T00:08:32;19.80;99.90
17851;DHT22;9051;51.548;14.348;2022-08-03T00:11:05;19.80;99.90
17851;DHT22;9051;51.548;14.348;2022-08-03T00:13:37;19.80;99.90
17851;DHT22;9051;51.548;14.348;2022-08-03T00:16:12;19.80;99.90
17851;DHT22;9051;51.548;14.348;2022-08-03T00:18:46;19.80;99.90
17851;DHT22;9051;51.548;14.348;2022-08-03T00:21:18;19.70;99.90
17851;DHT22;9051;51.548;14.348;2022-08-03T00:23:51;19.50;99.90
17851;DHT22;9051;51.548;14.348;2022-08-03T00:26:24;19.30;99.90
17851;DHT22;9051;51.548;14.348;2022-08-03T00:28:56;19.30;99.90
17851;DHT22;9051;51.548;14.348;2022-08-03T00:31:29;19.30;99.90
17851;DHT22;9051;51.548;14.348;2022-08-03T00:34:04;19.20;99.90
17851;DHT22;9051;51.548;14.348;2022-08-03T00:36:36;19.10;99.90
17851;DHT22;9051;51.548;14.348;2022-08-03T00:39:08;19.10;99.90
17851;DHT22;9051;51.548;14.348;2022-08-03T00:41:40;19.20;99.90
17851;DHT22;9051;51.548;14.348;2022-08-03T00:44:12;19.20;99.90
17851;DHT22;9051;51.548;14.348;2022-08-03T00:46:44;19.20;99.90
17851;DHT22;9051;51.548;14.348;2022-08-03T00:49:19;19.20;99.90
17851;DHT22;9051;51.548;14.348;2022-08-03T00:51:50;19.20;99.90
17851;DHT22;9051;51.548;14.348;2022-08-03T00:54:24;19.20;99.90
17851;DHT22;9051;51.548;14.348;2022-08-03T00:56:56;19.20;99.90
17851;DHT22;9051;51.548;14.348;2022-08-03T00:59:29;19.20;99.90
17851;DHT22;9051;51.548;14.348;2022-08-03T01:02:01;19.10;99.90
17851;DHT22;9051;51.548;14.348;2022-08-03T01:04:35;18.90;99.90
17851;DHT22;9051;51.548;14.348;2022-08-03T01:07:14;18.90;99.90
17851;DHT22;9051;51.548;14.348;2022-08-03T01:09:53;18.90;99.90
17851;DHT22;9051;51.548;14.348;2022-08-03T01:12:33;18.90;99.90
17851;DHT22;9051;51.548;14.348;2022-08-03T01:15:14;18.80;99.90
17851;DHT22;9051;51.548;14.348;2022-08-03T01:17:50;18.80;99.90
17851;DHT22;9051;51.548;14.348;2022-08-03T01:20:28;18.80;99.90
17851;DHT22;9051;51.548;14.348;2022-08-03T01:23:14;18.80;99.90
17851;DHT22;9051;51.548;14.348;2022-08-03T01:26:07;18.70;99.90
17851;DHT22;9051;51.548;14.348;2022-08-03T01:29:10;18.60;99.90
17851;DHT22;9051;51.548;14.348;2022-08-03T01:31:58;18.50;99.90
17851;DHT22;9051;51.548;14.348;2022-08-03T01:34:35;18.30;99.90
17851;DHT22;9051;51.548;14.348;2022-08-03T01:37:11;18.20;99.90
17851;DHT22;9051;51.548;14.348;2022-08-03T01:39:45;18.20;99.90
17851;DHT22;9051;51.548;14.348;2022-08-03T01:42:18;18.20;99.90
17851;DHT22;9051;51.548;14.348;2022-08-03T01:44:51;18.10;99.90
17851;DHT22;9051;51.548;14.348;2022-08-03T01:47:27;18.20;99.90
17851;DHT22;9051;51.548;14.348;2022-08-03T01:49:59;18.30;99.90
17851;DHT22;9051;51.548;14.348;2022-08-03T01:52:33;18.30;99.90
17851;DHT22;9051;51.548;14.348;2022-08-03T01:55:07;18.40;99.90
17851;DHT22;9051;51.548;14.348;2022-08-03T01:57:42;18.50;99.90
17851;DHT22;9051;51.548;14.348;2022-08-03T02:00:15;18.40;99.90
17851;DHT22;9051;51.548;14.348;2022-08-03T02:02:51;18.30;99.90
17851;DHT22;9051;51.548;14.348;2022-08-03T02:05:26;18.10;99.90
17851;DHT22;9051;51.548;14.348;2022-08-03T02:08:00;18.00;99.90
17851;DHT22;9051;51.548;14.348;2022-08-03T02:10:32;18.00;99.90
17851;DHT22;9051;51.548;14.348;2022-08-03T02:13:07;18.10;99.90
17851;DHT22;9051;51.548;14.348;2022-08-03T02:15:41;18.10;99.90
17851;DHT22;9051;51.548;14.348;2022-08-03T02:18:17;18.20;99.90
17851;DHT22;9051;51.548;14.348;2022-08-03T02:20:49;18.10;99.90
17851;DHT22;9051;51.548;14.348;2022-08-03T02:23:22;18.10;99.90
17851;DHT22;9051;51.548;14.348;2022-08-03T02:25:57;18.10;99.90
17851;DHT22;9051;51.548;14.348;2022-08-03T02:28:33;18.10;99.90
17851;DHT22;9051;51.548;14.348;2022-08-03T02:31:11;18.10;99.90
17851;DHT22;9051;51.548;14.348;2022-08-03T02:33:49;18.00;99.90
17851;DHT22;9051;51.548;14.348;2022-08-03T02:36:25;18.00;99.90
17851;DHT22;9051;51.548;14.348;2022-08-03T02:38:59;18.00;99.90
17851;DHT22;9051;51.548;14.348;2022-08-03T02:41:37;17.90;99.90
17851;DHT22;9051;51.548;14.348;2022-08-03T02:44:13;17.80;99.90
17851;DHT22;9051;51.548;14.348;2022-08-03T02:46:53;17.80;99.90
17851;DHT22;9051;51.548;14.348;2022-08-03T02:49:28;17.70;99.90
17851;DHT22;9051;51.548;14.348;2022-08-03T02:52:02;17.60;99.90
17851;DHT22;9051;51.548;14.348;2022-08-03T02:54:36;17.40;99.90
17851;DHT22;9051;51.548;14.348;2022-08-03T02:57:10;17.40;99.90
17851;DHT22;9051;51.548;14.348;2022-08-03T02:59:43;17.40;99.90
17851;DHT22;9051;51.548;14.348;2022-08-03T03:02:17;17.40;99.90
17851;DHT22;9051;51.548;14.348;2022-08-03T03:04:52;17.30;99.90
17851;DHT22;9051;51.548;14.348;2022-08-03T03:07:26;17.20;99.90
17851;DHT22;9051;51.548;14.348;2022-08-03T03:09:58;17.20;99.90
17851;DHT22;9051;51.548;14.348;2022-08-03T03:12:31;17.20;99.90
17851;DHT22;9051;51.548;14.348;2022-08-03T03:15:05;17.10;99.90
17851;DHT22;9051;51.548;14.348;2022-08-03T03:17:38;17.20;99.90
17851;DHT22;9051;51.548;14.348;2022-08-03T03:20:14;17.10;99.90
17851;DHT22;9051;51.548;14.348;2022-08-03T03:22:48;17.00;99.90
17851;DHT22;9051;51.548;14.348;2022-08-03T03:25:23;16.90;99.90
17851;DHT22;9051;51.548;14.348;2022-08-03T03:27:55;17.00;99.90
17851;DHT22;9051;51.548;14.348;2022-08-03T03:30:28;17.00;99.90
17851;DHT22;9051;51.548;14.348;2022-08-03T03:33:00;17.20;99.90
17851;DHT22;9051;51.548;14.348;2022-08-03T03:35:35;17.20;99.90
17851;DHT22;9051;51.548;14.348;2022-08-03T03:38:07;17.20;99.90
17851;DHT22;9051;51.548;14.348;2022-08-03T03:40:39;17.20;99.90
17851;DHT22;9051;51.548;14.348;2022-08-03T03:43:12;17.20;99.90
17851;DHT22;9051;51.548;14.348;2022-08-03T03:45:45;17.10;99.90
17851;DHT22;9051;51.548;14.348;2022-08-03T03:48:19;17.10;99.90
17851;DHT22;9051;51.548;14.348;2022-08-03T03:50:53;17.20;99.90
17851;DHT22;9051;51.548;14.348;2022-08-03T03:53:27;17.20;99.90
17851;DHT22;9051;51.548;14.348;2022-08-03T03:55:59;17.20;99.90
17851;DHT22;9051;51.548;14.348;2022-08-03T03:58:32;17.20;99.90
17851;DHT22;9051;51.548;14.348;2022-08-03T04:01:05;17.20;99.90
17851;DHT22;9051;51.548;14.348;2022-08-03T04:03:38;17.20;99.90
17851;DHT22;9051;51.548;14.348;2022-08-03T04:06:12;17.20;99.90
17851;DHT22;9051;51.548;14.348;2022-08-03T04:09:02;17.20;99.90
17851;DHT22;9051;51.548;14.348;2022-08-03T04:11:53;17.20;99.90
17851;DHT22;9051;51.548;14.348;2022-08-03T04:14:28;17.20;99.90
17851;DHT22;9051;51.548;14.348;2022-08-03T04:17:01;17.20;99.90
17851;DHT22;9051;51.548;14.348;2022-08-03T04:19:37;17.20;99.90
17851;DHT22;9051;51.548;14.348;2022-08-03T04:22:16;17.20;99.90
17851;DHT22;9051;51.548;14.348;2022-08-03T04:24:54;17.20;99.90
17851;DHT22;9051;51.548;14.348;2022-08-03T04:27:31;17.20;99.90
17851;DHT22;9051;51.548;14.348;2022-08-03T04:30:05;17.20;99.90
17851;DHT22;9051;51.548;14.348;2022-08-03T04:32:37;17.20;99.90
17851;DHT22;9051;51.548;14.348;2022-08-03T04:35:10;17.20;99.90
17851;DHT22;9051;51.548;14.348;2022-08-03T04:37:45;17.20;99.90
17851;DHT22;9051;51.548;14.348;2022-08-03T04:40:21;17.30;99.90
17851;DHT22;9051;51.548;14.348;2022-08-03T04:42:54;17.40;99.90
17851;DHT22;9051;51.548;14.348;2022-08-03T04:45:29;17.50;99.90
17851;DHT22;9051;51.548;14.348;2022-08-03T04:48:04;17.60;99.90
17851;DHT22;9051;51.548;14.348;2022-08-03T04:50:37;17.70;99.90
17851;DHT22;9051;51.548;14.348;2022-08-03T04:53:10;17.70;99.90
17851;DHT22;9051;51.548;14.348;2022-08-03T04:55:44;17.80;99.90
17851;DHT22;9051;51.548;14.348;2022-08-03T04:58:16;17.90;99.90
17851;DHT22;9051;51.548;14.348;2022-08-03T05:00:48;17.90;99.90
17851;DHT22;9051;51.548;14.348;2022-08-03T05:03:22;18.00;99.90
17851;DHT22;9051;51.548;14.348;2022-08-03T05:05:54;18.10;99.90
17851;DHT22;9051;51.548;14.348;2022-08-03T05:08:29;18.20;99.90
17851;DHT22;9051;51.548;14.348;2022-08-03T05:11:02;18.20;99.90
17851;DHT22;9051;51.548;14.348;2022-08-03T05:13:34;18.30;99.90
17851;DHT22;9051;51.548;14.348;2022-08-03T05:16:05;18.40;99.90
17851;DHT22;9051;51.548;14.348;2022-08-03T05:18:37;18.50;99.90
17851;DHT22;9051;51.548;14.348;2022-08-03T05:21:10;18.50;99.90
17851;DHT22;9051;51.548;14.348;2022-08-03T05:23:45;18.60;99.90
17851;DHT22;9051;51.548;14.348;2022-08-03T05:26:17;18.60;99.90
17851;DHT22;9051;51.548;14.348;2022-08-03T05:28:49;18.70;99.90
17851;DHT22;9051;51.548;14.348;2022-08-03T05:31:22;18.70;99.90
17851;DHT22;9051;51.548;14.348;2022-08-03T05:33:56;18.80;99.90
17851;DHT22;9051;51.548;14.348;2022-08-03T05:36:31;18.90;99.90
17851;DHT22;9051;51.548;14.348;2022-08-03T05:39:04;19.00;99.90
17851;DHT22;9051;51.548;14.348;2022-08-03T05:41:36;19.10;99.90
17851;DHT22;9051;51.548;14.348;2022-08-03T05:44:08;19.20;99.90
17851;DHT22;9051;51.548;14.348;2022-08-03T05:46:41;19.30;99.90
17851;DHT22;9051;51.548;14.348;2022-08-03T05:49:13;19.40;99.90
17851;DHT22;9051;51.548;14.348;2022-08-03T05:51:45;19.50;99.90
17851;DHT22;9051;51.548;14.348;2022-08-03T05:54:18;19.70;99.90
17851;DHT22;9051;51.548;14.348;2022-08-03T05:56:50;19.80;99.90
17851;DHT22;9051;51.548;14.348;2022-08-03T05:59:22;20.00;99.90
17851;DHT22;9051;51.548;14.348;2022-08-03T06:01:55;20.10;99.90
17851;DHT22;9051;51.548;14.348;2022-08-03T06:04:27;20.20;99.90
17851;DHT22;9051;51.548;14.348;2022-08-03T06:06:59;20.30;99.90
17851;DHT22;9051;51.548;14.348;2022-08-03T06:09:32;20.30;99.90
17851;DHT22;9051;51.548;14.348;2022-08-03T06:12:05;20.40;99.90
17851;DHT22;9051;51.548;14.348;2022-08-03T06:14:37;20.50;99.90
17851;DHT22;9051;51.548;14.348;2022-08-03T06:17:11;20.60;99.90
17851;DHT22;9051;51.548;14.348;2022-08-03T06:19:43;20.80;99.90
17851;DHT22;9051;51.548;14.348;2022-08-03T06:22:15;20.90;99.90
17851;DHT22;9051;51.548;14.348;2022-08-03T06:24:49;21.00;99.90
17851;DHT22;9051;51.548;14.348;2022-08-03T06:27:21;21.20;99.90
17851;DHT22;9051;51.548;14.348;2022-08-03T06:29:53;21.30;99.90
17851;DHT22;9051;51.548;14.348;2022-08-03T06:32:25;21.30;99.90
17851;DHT22;9051;51.548;14.348;2022-08-03T06:34:58;21.40;99.90
17851;DHT22;9051;51.548;14.348;2022-08-03T06:37:31;21.50;99.90
17851;DHT22;9051;51.548;14.348;2022-08-03T06:40:23;21.60;99.90
17851;DHT22;9051;51.548;14.348;2022-08-03T06:43:01;21.80;99.90
17851;DHT22;9051;51.548;14.348;2022-08-03T06:45:33;21.90;99.90
17851;DHT22;9051;51.548;14.348;2022-08-03T06:48:08;22.10;99.90
17851;DHT22;9051;51.548;14.348;2022-08-03T06:50:41;22.20;99.90
17851;DHT22;9051;51.548;14.348;2022-08-03T06:53:15;22.20;99.90
17851;DHT22;9051;51.548;14.348;2022-08-03T06:55:48;22.30;99.90
17851;DHT22;9051;51.548;14.348;2022-08-03T06:58:21;22.50;99.90
17851;DHT22;9051;51.548;14.348;2022-08-03T07:00:53;22.70;99.90
17851;DHT22;9051;51.548;14.348;2022-08-03T07:03:25;22.90;99.90
17851;DHT22;9051;51.548;14.348;2022-08-03T07:05:57;23.10;99.90
17851;DHT22;9051;51.548;14.348;2022-08-03T07:08:28;23.30;99.90
17851;DHT22;9051;51.548;14.348;2022-08-03T07:11:02;23.40;99.90
17851;DHT22;9051;51.548;14.348;2022-08-03T07:13:34;23.50;99.90
17851;DHT22;9051;51.548;14.348;2022-08-03T07:16:06;23.60;99.90
17851;DHT22;9051;51.548;14.348;2022-08-03T07:18:38;23.70;99.90
17851;DHT22;9051;51.548;14.348;2022-08-03T07:21:10;23.70;99.90
17851;DHT22;9051;51.548;14.348;2022-08-03T07:23:42;23.80;99.90
17851;DHT22;9051;51.548;14.348;2022-08-03T07:26:16;23.90;99.90
17851;DHT22;9051;51.548;14.348;2022-08-03T07:28:48;24.10;99.90
17851;DHT22;9051;51.548;14.348;2022-08-03T07:31:22;24.20;99.90
17851;DHT22;9051;51.548;14.348;2022-08-03T07:33:54;24.30;99.90
17851;DHT22;9051;51.548;14.348;2022-08-03T07:36:26;24.30;99.90
17851;DHT22;9051;51.548;14.348;2022-08-03T07:39:00;24.40;99.90
17851;DHT22;9051;51.548;14.348;2022-08-03T07:41:33;24.50;99.90
17851;DHT22;9051;51.548;14.348;2022-08-03T07:44:07;24.70;99.90
17851;DHT22;9051;51.548;14.348;2022-08-03T07:46:39;24.90;99.90
17851;DHT22;9051;51.548;14.348;2022-08-03T07:49:13;25.00;99.90
17851;DHT22;9051;51.548;14.348;2022-08-03T07:51:45;25.10;99.90
17851;DHT22;9051;51.548;14.348;2022-08-03T07:54:37;25.20;99.90
17851;DHT22;9051;51.548;14.348;2022-08-03T07:57:10;25.40;99.90
17851;DHT22;9051;51.548;14.348;2022-08-03T07:59:44;25.50;99.90
17851;DHT22;9051;51.548;14.348;2022-08-03T08:02:16;25.70;99.90
17851;DHT22;9051;51.548;14.348;2022-08-03T08:04:48;25.80;99.90
17851;DHT22;9051;51.548;14.348;2022-08-03T08:07:20;25.80;99.90
17851;DHT22;9051;51.548;14.348;2022-08-03T08:09:53;25.80;99.90
17851;DHT22;9051;51.548;14.348;2022-08-03T08:12:29;25.90;99.90
17851;DHT22;9051;51.548;14.348;2022-08-03T08:15:06;25.90;99.90
17851;DHT22;9051;51.548;14.348;2022-08-03T08:17:44;26.00;99.90
17851;DHT22;9051;51.548;14.348;2022-08-03T08:20:19;26.20;99.90
17851;DHT22;9051;51.548;14.348;2022-08-03T08:22:54;26.40;99.90
17851;DHT22;9051;51.548;14.348;2022-08-03T08:25:30;26.40;99.90
17851;DHT22;9051;51.548;14.348;2022-08-03T08:28:09;26.50;99.90
17851;DHT22;9051;51.548;14.348;2022-08-03T08:30:41;26.50;99.90
17851;DHT22;9051;51.548;14.348;2022-08-03T08:33:13;26.60;99.90
17851;DHT22;9051;51.548;14.348;2022-08-03T08:35:45;26.70;99.90
17851;DHT22;9051;51.548;14.348;2022-08-03T08:38:17;26.80;99.90
17851;DHT22;9051;51.548;14.348;2022-08-03T08:40:49;26.90;99.90
17851;DHT22;9051;51.548;14.348;2022-08-03T08:43:24;27.00;99.90
17851;DHT22;9051;51.548;14.348;2022-08-03T08:45:58;27.00;99.90
17851;DHT22;9051;51.548;14.348;2022-08-03T08:48:31;27.10;99.90
17851;DHT22;9051;51.548;14.348;2022-08-03T08:51:02;27.10;99.90
17851;DHT22;9051;51.548;14.348;2022-08-03T08:53:36;27.20;99.90
17851;DHT22;9051;51.548;14.348;2022-08-03T08:56:13;27.30;99.90
17851;DHT22;9051;51.548;14.348;2022-08-03T08:58:52;27.40;99.90
17851;DHT22;9051;51.548;14.348;2022-08-03T09:01:25;27.40;99.90
17851;DHT22;9051;51.548;14.348;2022-08-03T09:03:58;27.50;99.90
17851;DHT22;9051;51.548;14.348;2022-08-03T09:06:30;27.60;99.90
17851;DHT22;9051;51.548;14.348;2022-08-03T09:09:05;27.70;99.90
17851;DHT22;9051;51.548;14.348;2022-08-03T09:11:41;27.70;99.90
17851;DHT22;9051;51.548;14.348;2022-08-03T09:14:15;27.80;99.90
17851;DHT22;9051;51.548;14.348;2022-08-03T09:16:56;27.90;99.90
17851;DHT22;9051;51.548;14.348;2022-08-03T09:19:32;28.00;99.90
17851;DHT22;9051;51.548;14.348;2022-08-03T09:22:09;28.20;99.90
17851;DHT22;9051;51.548;14.348;2022-08-03T09:24:54;28.20;99.90
17851;DHT22;9051;51.548;14.348;2022-08-03T09:27:26;28.30;99.90
17851;DHT22;9051;51.548;14.348;2022-08-03T09:30:01;28.40;99.90
17851;DHT22;9051;51.548;14.348;2022-08-03T09:32:43;28.40;99.90
17851;DHT22;9051;51.548;14.348;2022-08-03T09:35:16;28.50;99.90
17851;DHT22;9051;51.548;14.348;2022-08-03T09:38:13;28.60;99.90
17851;DHT22;9051;51.548;14.348;2022-08-03T09:40:45;28.70;99.90
17851;DHT22;9051;51.548;14.348;2022-08-03T09:43:17;28.80;99.90
17851;DHT22;9051;51.548;14.348;2022-08-03T09:46:01;28.90;99.90
17851;DHT22;9051;51.548;14.348;2022-08-03T09:48:33;29.00;99.90
17851;DHT22;9051;51.548;14.348;2022-08-03T09:51:06;29.10;99.90
17851;DHT22;9051;51.548;14.348;2022-08-03T09:53:42;29.20;99.90
17851;DHT22;9051;51.548;14.348;2022-08-03T09:56:15;29.10;99.90
17851;DHT22;9051;51.548;14.348;2022-08-03T09:58:47;29.10;99.90
17851;DHT22;9051;51.548;14.348;2022-08-03T10:01:32;29.30;99.90
17851;DHT22;9051;51.548;14.348;2022-08-03T10:04:05;29.40;99.90
17851;DHT22;9051;51.548;14.348;2022-08-03T10:06:37;29.40;99.90
17851;DHT22;9051;51.548;14.348;2022-08-03T10:09:10;29.40;99.90
17851;DHT22;9051;51.548;14.348;2022-08-03T10:11:43;29.60;99.90
17851;DHT22;9051;51.548;14.348;2022-08-03T10:14:16;29.70;99.90
17851;DHT22;9051;51.548;14.348;2022-08-03T10:16:51;29.70;99.90
17851;DHT22;9051;51.548;14.348;2022-08-03T10:19:22;29.70;99.90
17851;DHT22;9051;51.548;14.348;2022-08-03T10:22:00;29.70;99.90
17851;DHT22;9051;51.548;14.348;2022-08-03T10:24:34;29.80;99.90
17851;DHT22;9051;51.548;14.348;2022-08-03T10:27:37;29.80;99.90
17851;DHT22;9051;51.548;14.348;2022-08-03T10:30:10;29.90;99.90
17851;DHT22;9051;51.548;14.348;2022-08-03T10:32:48;30.00;99.90
17851;DHT22;9051;51.548;14.348;2022-08-03T10:35:23;30.00;99.90
17851;DHT22;9051;51.548;14.348;2022-08-03T10:37:57;30.10;99.90
17851;DHT22;9051;51.548;14.348;2022-08-03T10:40:31;30.20;99.90
17851;DHT22;9051;51.548;14.348;2022-08-03T10:43:06;30.30;99.90
17851;DHT22;9051;51.548;14.348;2022-08-03T10:45:40;30.30;99.90
17851;DHT22;9051;51.548;14.348;2022-08-03T10:48:17;30.50;99.90
17851;DHT22;9051;51.548;14.348;2022-08-03T10:50:49;30.70;99.90
17851;DHT22;9051;51.548;14.348;2022-08-03T10:53:39;30.80;99.90
17851;DHT22;9051;51.548;14.348;2022-08-03T10:56:38;30.90;99.90
17851;DHT22;9051;51.548;14.348;2022-08-03T10:59:56;30.90;99.90
17851;DHT22;9051;51.548;14.348;2022-08-03T11:03:04;30.90;99.90
17851;DHT22;9051;51.548;14.348;2022-08-03T11:05:41;30.90;99.90
17851;DHT22;9051;51.548;14.348;2022-08-03T11:08:22;30.90;99.90
17851;DHT22;9051;51.548;14.348;2022-08-03T11:11:00;30.80;99.90
17851;DHT22;9051;51.548;14.348;2022-08-03T11:13:37;30.80;99.90
17851;DHT22;9051;51.548;14.348;2022-08-03T11:16:23;30.70;99.90
17851;DHT22;9051;51.548;14.348;2022-08-03T11:18:58;30.80;99.90
17851;DHT22;9051;51.548;14.348;2022-08-03T11:21:58;30.90;99.90
17851;DHT22;9051;51.548;14.348;2022-08-03T11:24:59;31.20;99.90
17851;DHT22;9051;51.548;14.348;2022-08-03T11:27:32;31.40;99.90
17851;DHT22;9051;51.548;14.348;2022-08-03T11:30:06;31.50;99.90
17851;DHT22;9051;51.548;14.348;2022-08-03T11:32:57;31.60;99.90
17851;DHT22;9051;51.548;14.348;2022-08-03T11:35:32;31.60;99.90
17851;DHT22;9051;51.548;14.348;2022-08-03T11:38:11;31.60;99.90
17851;DHT22;9051;51.548;14.348;2022-08-03T11:40:44;31.70;99.90
17851;DHT22;9051;51.548;14.348;2022-08-03T11:43:42;31.60;99.90
17851;DHT22;9051;51.548;14.348;2022-08-03T11:46:15;31.60;99.90
17851;DHT22;9051;51.548;14.348;2022-08-03T11:48:51;31.50;99.90
17851;DHT22;9051;51.548;14.348;2022-08-03T11:51:29;31.60;99.90
17851;DHT22;9051;51.548;14.348;2022-08-03T11:54:05;31.70;99.90
17851;DHT22;9051;51.548;14.348;2022-08-03T11:56:45;31.90;99.90
17851;DHT22;9051;51.548;14.348;2022-08-03T11:59:17;32.10;99.90
17851;DHT22;9051;51.548;14.348;2022-08-03T12:01:49;32.20;99.90
17851;DHT22;9051;51.548;14.348;2022-08-03T12:04:21;32.20;99.90
17851;DHT22;9051;51.548;14.348;2022-08-03T12:06:59;32.30;99.90
17851;DHT22;9051;51.548;14.348;2022-08-03T12:09:35;32.20;99.90
17851;DHT22;9051;51.548;14.348;2022-08-03T12:12:15;32.30;99.90
17851;DHT22;9051;51.548;14.348;2022-08-03T12:14:47;32.30;99.90
17851;DHT22;9051;51.548;14.348;2022-08-03T12:17:19;32.60;99.90
17851;DHT22;9051;51.548;14.348;2022-08-03T12:19:51;32.70;99.90
17851;DHT22;9051;51.548;14.348;2022-08-03T12:22:31;32.90;99.90
17851;DHT22;9051;51.548;14.348;2022-08-03T12:25:05;32.90;99.90
17851;DHT22;9051;51.548;14.348;2022-08-03T12:27:37;32.80;99.90
17851;DHT22;9051;51.548;14.348;2022-08-03T12:30:10;32.60;99.90
17851;DHT22;9051;51.548;14.348;2022-08-03T12:32:43;32.60;99.90
17851;DHT22;9051;51.548;14.348;2022-08-03T12:35:21;32.60;99.90
17851;DHT22;9051;51.548;14.348;2022-08-03T12:37:54;32.60;99.90
17851;DHT22;9051;51.548;14.348;2022-08-03T12:40:29;32.60;99.90
17851;DHT22;9051;51.548;14.348;2022-08-03T12:43:10;32.60;99.90
17851;DHT22;9051;51.548;14.348;2022-08-03T12:45:42;32.50;99.90
17851;DHT22;9051;51.548;14.348;2022-08-03T12:48:14;32.60;99.90
17851;DHT22;9051;51.548;14.348;2022-08-03T12:50:45;32.60;99.90
17851;DHT22;9051;51.548;14.348;2022-08-03T12:53:27;32.50;99.90
17851;DHT22;9051;51.548;14.348;2022-08-03T12:56:03;32.50;99.90
17851;DHT22;9051;51.548;14.348;2022-08-03T12:58:35;32.40;99.90
17851;DHT22;9051;51.548;14.348;2022-08-03T13:01:08;32.50;99.90
17851;DHT22;9051;51.548;14.348;2022-08-03T13:03:41;32.60;99.90
17851;DHT22;9051;51.548;14.348;2022-08-03T13:06:14;32.60;99.90
17851;DHT22;9051;51.548;14.348;2022-08-03T13:08:46;32.80;99.90
17851;DHT22;9051;51.548;14.348;2022-08-03T13:11:22;33.00;99.90
17851;DHT22;9051;51.548;14.348;2022-08-03T13:13:55;33.10;99.90
17851;DHT22;9051;51.548;14.348;2022-08-03T13:16:27;33.20;99.90
17851;DHT22;9051;51.548;14.348;2022-08-03T13:18:59;33.30;99.90
17851;DHT22;9051;51.548;14.348;2022-08-03T13:21:32;33.30;99.90
17851;DHT22;9051;51.548;14.348;2022-08-03T13:24:04;33.40;99.90
17851;DHT22;9051;51.548;14.348;2022-08-03T13:26:37;33.50;99.90
17851;DHT22;9051;51.548;14.348;2022-08-03T13:29:09;33.50;99.90
17851;DHT22;9051;51.548;14.348;2022-08-03T13:31:41;33.60;99.90
17851;DHT22;9051;51.548;14.348;2022-08-03T13:34:13;33.80;99.90
17851;DHT22;9051;51.548;14.348;2022-08-03T13:36:45;33.60;99.90
17851;DHT22;9051;51.548;14.348;2022-08-03T13:39:17;33.40;99.90
17851;DHT22;9051;51.548;14.348;2022-08-03T13:41:53;33.50;99.90
17851;DHT22;9051;51.548;14.348;2022-08-03T13:44:25;33.50;99.90
17851;DHT22;9051;51.548;14.348;2022-08-03T13:46:57;33.80;99.90
17851;DHT22;9051;51.548;14.348;2022-08-03T13:49:30;33.90;99.90
17851;DHT22;9051;51.548;14.348;2022-08-03T13:52:03;33.80;99.90
17851;DHT22;9051;51.548;14.348;2022-08-03T13:54:35;33.90;99.90
17851;DHT22;9051;51.548;14.348;2022-08-03T13:57:09;34.00;99.90
17851;DHT22;9051;51.548;14.348;2022-08-03T13:59:41;34.10;99.90
17851;DHT22;9051;51.548;14.348;2022-08-03T14:02:13;34.20;99.90
17851;DHT22;9051;51.548;14.348;2022-08-03T14:04:45;34.00;99.90
17851;DHT22;9051;51.548;14.348;2022-08-03T14:07:17;34.20;99.90
17851;DHT22;9051;51.548;14.348;2022-08-03T14:09:49;34.30;99.90
17851;DHT22;9051;51.548;14.348;2022-08-03T14:12:22;34.60;99.90
17851;DHT22;9051;51.548;14.348;2022-08-03T14:14:54;34.60;99.90
17851;DHT22;9051;51.548;14.348;2022-08-03T14:17:26;34.50;99.90
17851;DHT22;9051;51.548;14.348;2022-08-03T14:19:58;34.60;99.90
17851;DHT22;9051;51.548;14.348;2022-08-03T14:22:31;34.60;99.90
17851;DHT22;9051;51.548;14.348;2022-08-03T14:25:04;34.20;99.90
17851;DHT22;9051;51.548;14.348;2022-08-03T14:27:38;34.20;99.90
17851;DHT22;9051;51.548;14.348;2022-08-03T14:30:10;34.30;99.90
17851;DHT22;9051;51.548;14.348;2022-08-03T14:32:43;34.40;99.90
17851;DHT22;9051;51.548;14.348;2022-08-03T14:35:15;34.40;99.90
17851;DHT22;9051;51.548;14.348;2022-08-03T14:37:47;34.50;99.90
17851;DHT22;9051;51.548;14.348;2022-08-03T14:40:20;34.60;99.90
17851;DHT22;9051;51.548;14.348;2022-08-03T14:42:53;34.60;99.90
17851;DHT22;9051;51.548;14.348;2022-08-03T14:45:25;34.60;99.90
17851;DHT22;9051;51.548;14.348;2022-08-03T14:47:57;34.70;99.90
17851;DHT22;9051;51.548;14.348;2022-08-03T14:50:29;34.90;99.90
17851;DHT22;9051;51.548;14.348;2022-08-03T14:53:01;35.00;99.90
17851;DHT22;9051;51.548;14.348;2022-08-03T14:55:34;35.10;99.90
17851;DHT22;9051;51.548;14.348;2022-08-03T14:58:07;35.10;99.90
17851;DHT22;9051;51.548;14.348;2022-08-03T15:00:39;34.60;99.90
17851;DHT22;9051;51.548;14.348;2022-08-03T15:03:11;34.20;99.90
17851;DHT22;9051;51.548;14.348;2022-08-03T15:05:43;33.80;99.90
17851;DHT22;9051;51.548;14.348;2022-08-03T15:08:15;33.80;99.90
17851;DHT22;9051;51.548;14.348;2022-08-03T15:10:48;33.80;99.90
17851;DHT22;9051;51.548;14.348;2022-08-03T15:13:22;33.90;99.90
17851;DHT22;9051;51.548;14.348;2022-08-03T15:15:54;33.80;99.90
17851;DHT22;9051;51.548;14.348;2022-08-03T15:18:27;33.80;99.90
17851;DHT22;9051;51.548;14.348;2022-08-03T15:20:59;33.80;99.90
17851;DHT22;9051;51.548;14.348;2022-08-03T15:23:31;33.60;99.90
17851;DHT22;9051;51.548;14.348;2022-08-03T15:26:06;33.50;99.90
17851;DHT22;9051;51.548;14.348;2022-08-03T15:28:39;33.40;99.90
17851;DHT22;9051;51.548;14.348;2022-08-03T15:31:13;33.40;99.90
17851;DHT22;9051;51.548;14.348;2022-08-03T15:33:45;33.70;99.90
17851;DHT22;9051;51.548;14.348;2022-08-03T15:36:17;34.00;99.90
17851;DHT22;9051;51.548;14.348;2022-08-03T15:38:51;34.00;99.90
17851;DHT22;9051;51.548;14.348;2022-08-03T15:41:24;34.00;99.90
17851;DHT22;9051;51.548;14.348;2022-08-03T15:44:00;33.70;99.90
17851;DHT22;9051;51.548;14.348;2022-08-03T15:46:32;33.70;99.90
17851;DHT22;9051;51.548;14.348;2022-08-03T15:49:03;33.40;99.90
17851;DHT22;9051;51.548;14.348;2022-08-03T15:51:36;33.10;99.90
17851;DHT22;9051;51.548;14.348;2022-08-03T15:54:09;32.90;99.90
17851;DHT22;9051;51.548;14.348;2022-08-03T16:04:43;32.40;99.90
17851;DHT22;9051;51.548;14.348;2022-08-03T16:07:15;32.60;99.90
17851;DHT22;9051;51.548;14.348;2022-08-03T16:10:08;32.80;99.90
17851;DHT22;9051;51.548;14.348;2022-08-03T16:12:40;32.90;99.90
17851;DHT22;9051;51.548;14.348;2022-08-03T16:15:13;33.00;99.90
17851;DHT22;9051;51.548;14.348;2022-08-03T16:17:45;33.10;99.90
17851;DHT22;9051;51.548;14.348;2022-08-03T16:20:18;33.20;99.90
17851;DHT22;9051;51.548;14.348;2022-08-03T16:22:50;33.40;99.90
17851;DHT22;9051;51.548;14.348;2022-08-03T16:25:22;33.70;99.90